createdAt,value
2022-12-09T00:01:10.908Z,82.13
2022-12-09T00:03:38.038Z,67.32
2022-12-09T00:06:19.432Z,67.35
2022-12-09T00:08:46.456Z,73.95
2022-12-09T00:11:13.542Z,89.30
2022-12-09T00:13:40.446Z,75.15
2022-12-09T00:16:09.447Z,103.93
2022-12-09T00:18:36.570Z,101.47
2022-12-09T00:21:12.031Z,68.95
2022-12-09T00:23:38.659Z,76.50
2022-12-09T00:26:05.102Z,67.40
2022-12-09T00:28:31.528Z,63.28
2022-12-09T00:31:02.503Z,65.13
2022-12-09T00:33:34.104Z,75.05
2022-12-09T00:36:15.632Z,87.07
2022-12-09T00:38:42.588Z,80.60
2022-12-09T00:41:09.419Z,75.65
2022-12-09T00:43:35.912Z,85.88
2022-12-09T00:46:02.458Z,85.25
2022-12-09T00:48:29.336Z,76.93
2022-12-09T00:50:55.916Z,84.35
2022-12-09T00:53:22.909Z,91.18
2022-12-09T00:55:49.714Z,76.10
2022-12-09T00:58:16.221Z,69.47
2022-12-09T01:00:42.971Z,65.23
2022-12-09T01:03:14.472Z,73.25
2022-12-09T01:05:41.925Z,78.72
2022-12-09T01:08:09.475Z,71.57
2022-12-09T01:10:36.858Z,55.08
2022-12-09T01:13:04.005Z,58.60
2022-12-09T01:15:30.708Z,61.00
2022-12-09T01:17:57.376Z,56.95
2022-12-09T01:20:24.123Z,56.33
2022-12-09T01:22:50.972Z,48.67
2022-12-09T01:25:17.565Z,46.80
2022-12-09T01:27:44.293Z,50.22
2022-12-09T01:30:13.429Z,50.72
2022-12-09T01:32:41.035Z,41.63
2022-12-09T01:35:08.141Z,52.35
2022-12-09T01:37:36.699Z,44.50
2022-12-09T01:40:13.173Z,57.88
2022-12-09T01:42:39.828Z,52.80
2022-12-09T01:45:21.945Z,59.38
2022-12-09T01:47:52.303Z,60.70
2022-12-09T01:50:19.541Z,58.60
2022-12-09T01:52:47.541Z,54.05
2022-12-09T01:55:14.646Z,54.40
2022-12-09T01:57:41.994Z,55.40
2022-12-09T02:00:09.627Z,50.40
2022-12-09T02:02:38.333Z,63.30
2022-12-09T02:05:06.817Z,50.03
2022-12-09T02:07:33.877Z,51.33
2022-12-09T02:10:01.268Z,50.88
2022-12-09T02:12:27.980Z,56.05
2022-12-09T02:15:10.093Z,53.93
2022-12-09T02:17:43.778Z,55.50
2022-12-09T02:20:22.938Z,51.58
2022-12-09T02:22:59.113Z,54.58
2022-12-09T02:25:32.138Z,56.70
2022-12-09T02:28:24.813Z,55.47
2022-12-09T02:31:03.685Z,61.45
2022-12-09T02:33:43.871Z,53.60
2022-12-09T02:36:16.711Z,55.05
2022-12-09T02:38:43.821Z,65.55
2022-12-09T02:41:17.159Z,60.47
2022-12-09T02:43:53.806Z,58.63
2022-12-09T02:46:22.565Z,63.35
2022-12-09T02:48:53.595Z,61.45
2022-12-09T02:51:22.587Z,63.75
2022-12-09T02:53:53.507Z,62.20
2022-12-09T02:56:21.236Z,61.60
2022-12-09T02:58:49.080Z,62.78
2022-12-09T03:01:25.063Z,57.80
2022-12-09T03:03:53.566Z,58.28
2022-12-09T03:06:20.643Z,60.07
2022-12-09T03:09:00.248Z,60.17
2022-12-09T03:11:27.959Z,49.83
2022-12-09T03:14:08.639Z,57.30
2022-12-09T03:17:00.703Z,54.22
2022-12-09T03:19:33.827Z,45.20
2022-12-09T03:22:09.273Z,50.38
2022-12-09T03:24:55.718Z,49.08
2022-12-09T03:27:28.525Z,48.20
2022-12-09T03:29:56.145Z,51.00
2022-12-09T03:32:26.873Z,47.27
2022-12-09T03:35:01.115Z,47.75
2022-12-09T03:37:28.545Z,45.25
2022-12-09T03:39:57.425Z,48.25
2022-12-09T03:42:31.216Z,40.95
2022-12-09T03:45:04.149Z,44.27
2022-12-09T03:47:30.983Z,40.63
2022-12-09T03:49:58.230Z,48.78
2022-12-09T03:52:32.008Z,53.53
2022-12-09T03:55:09.360Z,48.42
2022-12-09T03:57:40.491Z,52.50
2022-12-09T04:00:09.637Z,50.28
2022-12-09T04:02:36.925Z,49.97
2022-12-09T04:05:04.240Z,51.78
2022-12-09T04:07:30.994Z,50.15
2022-12-09T04:09:57.739Z,58.17
2022-12-09T04:12:24.283Z,61.58
2022-12-09T04:14:50.751Z,61.35
2022-12-09T04:17:17.353Z,58.35
2022-12-09T04:19:43.931Z,64.50
2022-12-09T04:22:10.571Z,60.50
2022-12-09T04:24:37.098Z,64.85
2022-12-09T04:27:04.205Z,63.90
2022-12-09T04:29:34.211Z,57.10
2022-12-09T04:32:05.160Z,64.20
2022-12-09T04:34:33.225Z,59.53
2022-12-09T04:37:00.243Z,57.22
2022-12-09T04:39:26.735Z,60.67
2022-12-09T04:41:53.187Z,59.60
2022-12-09T04:44:20.058Z,54.70
2022-12-09T04:46:46.782Z,50.90
2022-12-09T04:49:13.369Z,52.83
2022-12-09T04:51:40.857Z,60.65
2022-12-09T04:54:11.284Z,66.25
2022-12-09T04:56:37.736Z,72.97
2022-12-09T04:59:04.975Z,74.23
2022-12-09T05:01:34.562Z,72.93
2022-12-09T05:04:01.616Z,78.13
2022-12-09T05:06:29.217Z,57.58
2022-12-09T05:08:58.011Z,64.68
2022-12-09T05:11:25.060Z,77.23
2022-12-09T05:13:53.213Z,82.20
2022-12-09T05:16:20.292Z,77.05
2022-12-09T05:18:48.337Z,77.43
2022-12-09T05:21:17.842Z,64.30
2022-12-09T05:23:44.572Z,67.73
2022-12-09T05:26:15.141Z,62.78
2022-12-09T05:28:42.268Z,66.60
2022-12-09T05:31:15.332Z,70.22
2022-12-09T05:33:43.309Z,80.00
2022-12-09T05:36:12.518Z,88.60
2022-12-09T05:38:39.852Z,80.00
2022-12-09T05:41:06.780Z,76.18
2022-12-09T05:43:35.166Z,84.97
2022-12-09T05:46:02.730Z,90.15
2022-12-09T05:48:30.220Z,87.30
2022-12-09T05:51:10.656Z,91.65
2022-12-09T05:53:37.956Z,80.78
2022-12-09T05:56:05.017Z,75.80
2022-12-09T05:58:32.581Z,80.72
2022-12-09T06:01:08.707Z,76.47
2022-12-09T06:03:36.618Z,72.90
2022-12-09T06:06:09.238Z,87.90
2022-12-09T06:08:36.954Z,78.63
2022-12-09T06:11:04.112Z,92.32
2022-12-09T06:13:30.933Z,80.90
2022-12-09T06:16:03.497Z,88.50
2022-12-09T06:18:30.452Z,73.63
2022-12-09T06:20:57.321Z,73.90
2022-12-09T06:23:24.218Z,71.75
2022-12-09T06:25:50.844Z,70.23
2022-12-09T06:28:17.400Z,66.65
2022-12-09T06:30:44.111Z,75.00
2022-12-09T06:33:36.881Z,67.32
2022-12-09T06:36:02.207Z,63.40
2022-12-09T06:38:29.500Z,71.67
2022-12-09T06:40:56.503Z,80.40
2022-12-09T06:43:23.100Z,86.13
2022-12-09T06:45:49.676Z,66.28
2022-12-09T06:48:16.651Z,78.63
2022-12-09T06:50:43.457Z,90.60
2022-12-09T06:53:10.185Z,86.38
2022-12-09T06:55:36.773Z,79.82
2022-12-09T06:58:04.906Z,96.10
2022-12-09T07:00:31.692Z,96.68
2022-12-09T07:02:58.512Z,89.83
2022-12-09T07:05:26.061Z,100.95
2022-12-09T07:07:53.908Z,88.38
2022-12-09T07:10:20.764Z,105.13
2022-12-09T07:12:47.646Z,97.22
2022-12-09T07:15:14.722Z,95.50
2022-12-09T07:17:42.106Z,97.88
2022-12-09T07:20:09.489Z,101.20
2022-12-09T07:22:36.393Z,90.57
2022-12-09T07:25:03.712Z,83.97
2022-12-09T07:27:30.934Z,110.37
2022-12-09T07:29:57.806Z,87.43
2022-12-09T07:32:24.373Z,119.00
2022-12-09T07:34:51.061Z,106.85
2022-12-09T07:37:17.730Z,102.68
2022-12-09T07:39:44.282Z,110.77
2022-12-09T07:42:11.324Z,102.13
2022-12-09T07:44:38.265Z,103.38
2022-12-09T07:47:05.527Z,103.22
2022-12-09T07:49:32.548Z,111.15
2022-12-09T07:51:59.448Z,98.30
2022-12-09T07:54:25.932Z,105.30
2022-12-09T07:56:52.993Z,123.35
2022-12-09T07:59:19.763Z,118.40
2022-12-09T08:01:46.683Z,137.88
2022-12-09T08:04:13.691Z,132.73
2022-12-09T08:06:41.369Z,119.10
2022-12-09T08:09:11.504Z,127.55
2022-12-09T08:11:38.862Z,127.38
2022-12-09T08:14:12.260Z,113.03
2022-12-09T08:16:41.165Z,106.33
2022-12-09T08:19:09.079Z,107.63
2022-12-09T08:21:35.964Z,98.10
2022-12-09T08:24:04.353Z,86.55
2022-12-09T08:26:32.436Z,100.22
2022-12-09T08:28:59.939Z,111.27
2022-12-09T08:31:27.742Z,113.90
2022-12-09T08:33:55.689Z,104.53
2022-12-09T08:36:27.590Z,97.20
2022-12-09T08:38:55.616Z,97.80
2022-12-09T08:41:25.711Z,102.63
2022-12-09T08:43:52.500Z,110.97
2022-12-09T08:46:19.655Z,95.68
2022-12-09T08:48:46.484Z,105.40
2022-12-09T08:51:13.250Z,110.35
2022-12-09T08:53:40.095Z,102.90
2022-12-09T08:56:15.466Z,97.38
2022-12-09T08:58:43.119Z,76.82
2022-12-09T09:01:18.870Z,103.30
2022-12-09T09:03:47.082Z,90.93
2022-12-09T09:06:15.302Z,82.53
2022-12-09T09:08:42.421Z,85.60
2022-12-09T09:11:15.412Z,93.15
2022-12-09T09:13:44.329Z,86.63
2022-12-09T09:16:13.269Z,87.50
2022-12-09T09:18:40.450Z,81.77
2022-12-09T09:21:09.234Z,88.00
2022-12-09T09:23:36.685Z,88.88
2022-12-09T09:26:04.133Z,86.10
2022-12-09T09:28:31.851Z,91.93
2022-12-09T09:31:05.342Z,88.77
2022-12-09T09:33:32.472Z,87.70
2022-12-09T09:36:06.910Z,85.07
2022-12-09T09:38:36.759Z,85.70
2022-12-09T09:41:15.489Z,82.20
2022-12-09T09:43:42.972Z,85.00
2022-12-09T09:46:20.605Z,78.43
2022-12-09T09:48:48.649Z,71.53
2022-12-09T09:51:18.588Z,65.43
2022-12-09T09:53:45.547Z,58.60
2022-12-09T09:56:24.720Z,60.27
2022-12-09T09:59:20.638Z,59.28
2022-12-09T10:02:18.270Z,50.50
2022-12-09T10:05:03.289Z,44.03
2022-12-09T10:07:42.157Z,45.83
2022-12-09T10:10:31.542Z,47.47
2022-12-09T10:13:18.263Z,43.05
2022-12-09T10:16:03.262Z,36.05
2022-12-09T10:18:42.375Z,39.55
2022-12-09T10:21:21.585Z,40.90
2022-12-09T10:23:49.842Z,38.83
2022-12-09T10:26:31.904Z,46.00
2022-12-09T10:29:16.198Z,43.40
2022-12-09T10:31:42.933Z,48.95
2022-12-09T10:34:11.833Z,48.22
2022-12-09T10:36:42.679Z,38.43
2022-12-09T10:39:16.490Z,41.35
2022-12-09T10:41:48.764Z,44.80
2022-12-09T10:44:26.266Z,43.85
2022-12-09T10:47:02.432Z,44.40
2022-12-09T10:49:30.450Z,43.60
2022-12-09T10:51:58.192Z,44.80
2022-12-09T10:54:40.118Z,36.22
2022-12-09T10:57:12.850Z,37.10
2022-12-09T10:59:56.761Z,35.22
2022-12-09T11:02:23.912Z,25.43
2022-12-09T11:04:51.256Z,27.77
2022-12-09T11:07:28.935Z,29.75
2022-12-09T11:09:58.794Z,30.75
2022-12-09T11:12:32.051Z,28.00
2022-12-09T11:15:24.183Z,28.50
2022-12-09T11:17:58.549Z,31.52
2022-12-09T11:20:28.658Z,31.77
2022-12-09T11:23:04.405Z,30.02
2022-12-09T11:25:36.929Z,30.70
2022-12-09T11:28:24.524Z,28.97
2022-12-09T11:33:55.652Z,29.67
2022-12-09T11:36:30.783Z,30.92
2022-12-09T11:39:29.097Z,32.00
2022-12-09T11:42:18.126Z,32.33
2022-12-09T11:44:55.584Z,32.75
2022-12-09T11:47:44.592Z,31.02
2022-12-09T11:50:18.059Z,28.73
2022-12-09T11:52:44.673Z,30.35
2022-12-09T11:55:21.372Z,31.23
2022-12-09T11:58:02.315Z,31.48
2022-12-09T12:00:43.141Z,32.03
2022-12-09T12:03:20.582Z,32.65
2022-12-09T12:05:53.142Z,31.83
2022-12-09T12:08:30.176Z,32.70
2022-12-09T12:11:00.799Z,29.38
2022-12-09T12:13:39.029Z,33.97
2022-12-09T12:16:15.051Z,31.63
2022-12-09T12:18:48.714Z,31.45
2022-12-09T12:21:28.367Z,31.63
2022-12-09T12:23:57.735Z,36.50
2022-12-09T12:26:38.335Z,34.75
2022-12-09T12:29:19.158Z,34.17
2022-12-09T12:32:11.579Z,35.65
2022-12-09T12:34:44.069Z,34.53
2022-12-09T12:37:28.800Z,35.50
2022-12-09T12:40:43.509Z,34.15
2022-12-09T12:43:31.928Z,34.50
2022-12-09T12:46:05.355Z,32.58
2022-12-09T12:49:14.329Z,33.00
2022-12-09T12:51:54.180Z,33.03
2022-12-09T12:54:33.667Z,34.13
2022-12-09T12:57:16.792Z,33.53
2022-12-09T13:00:11.363Z,31.92
2022-12-09T13:03:11.301Z,33.17
2022-12-09T13:05:43.730Z,30.48
2022-12-09T13:08:25.727Z,33.05
2022-12-09T13:10:58.099Z,28.55
2022-12-09T13:13:48.227Z,36.40
2022-12-09T13:16:29.415Z,36.70
2022-12-09T13:19:06.395Z,36.00
2022-12-09T13:21:33.142Z,37.00
2022-12-09T13:24:14.173Z,37.15
2022-12-09T13:27:00.257Z,38.88
2022-12-09T13:29:43.320Z,36.73
2022-12-09T13:32:28.104Z,33.70
2022-12-09T13:35:06.316Z,36.75
2022-12-09T13:37:41.978Z,35.20
2022-12-09T13:40:20.582Z,35.75
2022-12-09T13:42:55.197Z,36.20
2022-12-09T13:45:36.978Z,35.03
2022-12-09T13:48:26.619Z,33.97
2022-12-09T13:50:53.021Z,35.22
2022-12-09T13:53:19.439Z,35.83
2022-12-09T13:55:51.310Z,37.17
2022-12-09T13:58:35.443Z,37.08
2022-12-09T14:01:08.728Z,34.22
2022-12-09T14:03:53.580Z,38.95
2022-12-09T14:06:25.657Z,37.63
2022-12-09T14:08:56.767Z,36.73
2022-12-09T14:11:40.259Z,42.15
2022-12-09T14:14:25.029Z,35.47
2022-12-09T14:16:57.017Z,37.67
2022-12-09T14:19:27.263Z,37.78
2022-12-09T14:22:19.733Z,35.67
2022-12-09T14:24:50.780Z,37.10
2022-12-09T14:27:26.450Z,39.42
2022-12-09T14:30:40.873Z,32.33
2022-12-09T14:33:22.748Z,37.88
2022-12-09T14:35:53.151Z,41.20
2022-12-09T14:38:34.895Z,39.35
2022-12-09T14:41:22.017Z,39.25
2022-12-09T14:44:01.034Z,43.92
2022-12-09T14:46:39.063Z,43.65
2022-12-09T14:49:29.671Z,46.70
2022-12-09T14:52:02.840Z,74.72
2022-12-09T14:54:33.030Z,55.67
2022-12-09T14:57:02.912Z,49.28
2022-12-09T14:59:31.575Z,63.70
2022-12-09T15:02:00.651Z,64.47
2022-12-09T15:04:27.223Z,84.10
2022-12-09T15:07:11.596Z,69.55
2022-12-09T15:09:47.521Z,57.28
2022-12-09T15:12:14.023Z,59.50
2022-12-09T15:14:42.121Z,60.90
2022-12-09T15:17:09.395Z,56.83
2022-12-09T15:19:59.781Z,62.45
2022-12-09T15:22:26.717Z,61.45
2022-12-09T15:24:53.620Z,62.35
2022-12-09T15:27:22.649Z,61.13
2022-12-09T15:29:50.272Z,61.72
2022-12-09T15:32:29.329Z,69.57
2022-12-09T15:34:56.224Z,71.60
2022-12-09T15:37:28.351Z,58.47
2022-12-09T15:40:02.425Z,59.87
2022-12-09T15:42:33.967Z,58.25
2022-12-09T15:45:13.019Z,54.00
2022-12-09T15:47:49.395Z,53.50
2022-12-09T15:50:28.846Z,64.60
2022-12-09T15:53:01.350Z,62.57
2022-12-09T15:55:47.421Z,64.93
2022-12-09T15:58:16.920Z,56.60
2022-12-09T16:00:46.696Z,56.92
2022-12-09T16:03:19.055Z,57.40
2022-12-09T16:05:58.407Z,60.33
2022-12-09T16:08:36.290Z,58.53
2022-12-09T16:11:03.404Z,59.05
2022-12-09T16:13:29.970Z,58.97
2022-12-09T16:15:58.506Z,61.63
2022-12-09T16:18:34.945Z,61.23
2022-12-09T16:21:33.831Z,62.67
2022-12-09T16:24:12.505Z,62.28
2022-12-09T16:26:44.328Z,62.67
2022-12-09T16:29:32.884Z,63.20
2022-12-09T16:32:26.116Z,58.80
2022-12-09T16:35:18.756Z,57.50
2022-12-09T16:37:57.169Z,61.78
2022-12-09T16:40:23.679Z,66.72
2022-12-09T16:42:52.546Z,74.22
2022-12-09T16:45:37.140Z,66.90
2022-12-09T16:48:04.225Z,68.00
2022-12-09T16:50:33.693Z,72.88
2022-12-09T16:53:00.570Z,64.55
2022-12-09T16:55:29.398Z,64.63
2022-12-09T16:57:58.001Z,75.23
2022-12-09T17:00:25.890Z,74.85
2022-12-09T17:03:11.090Z,76.28
2022-12-09T17:05:37.613Z,72.78
2022-12-09T17:08:04.547Z,79.72
2022-12-09T17:10:31.136Z,74.03
2022-12-09T17:12:57.673Z,83.82
2022-12-09T17:18:29.636Z,76.13
2022-12-09T17:21:01.459Z,70.55
2022-12-09T17:23:28.036Z,78.77
2022-12-09T17:26:02.668Z,89.38
2022-12-09T17:28:30.350Z,92.22
2022-12-09T17:30:57.729Z,94.35
2022-12-09T17:33:28.609Z,86.20
2022-12-09T17:35:56.049Z,79.53
2022-12-09T17:38:22.887Z,79.05
2022-12-09T17:40:49.341Z,74.88
2022-12-09T17:43:15.832Z,82.80
2022-12-09T17:45:42.639Z,118.82
2022-12-09T17:48:09.142Z,72.37
2022-12-09T17:50:40.381Z,81.35
2022-12-09T17:53:06.897Z,76.82
2022-12-09T17:55:33.588Z,95.25
2022-12-09T17:58:00.055Z,115.30
2022-12-09T18:00:26.579Z,89.17
2022-12-09T18:02:52.987Z,96.20
2022-12-09T18:05:19.506Z,117.63
2022-12-09T18:07:45.935Z,125.65
2022-12-09T18:10:12.590Z,103.07
2022-12-09T18:12:39.276Z,129.37
2022-12-09T18:15:06.075Z,116.82
2022-12-09T18:17:32.538Z,107.47
2022-12-09T18:19:58.991Z,101.15
2022-12-09T18:22:25.501Z,98.60
2022-12-09T18:24:51.948Z,100.73
2022-12-09T18:27:18.369Z,99.25
2022-12-09T18:29:44.902Z,105.20
2022-12-09T18:32:11.351Z,121.60
2022-12-09T18:34:37.824Z,114.88
2022-12-09T18:37:04.434Z,112.60
2022-12-09T18:39:30.973Z,102.47
2022-12-09T18:41:57.533Z,115.72
2022-12-09T18:44:23.959Z,116.18
2022-12-09T18:46:50.920Z,138.57
2022-12-09T18:49:22.850Z,131.80
2022-12-09T18:51:51.027Z,129.38
2022-12-09T18:54:28.293Z,127.03
2022-12-09T18:56:55.983Z,135.45
2022-12-09T18:59:23.097Z,148.77
2022-12-09T19:01:49.963Z,123.90
2022-12-09T19:04:23.070Z,115.47
2022-12-09T19:06:51.752Z,101.70
2022-12-09T19:09:27.424Z,107.63
2022-12-09T19:11:54.424Z,105.43
2022-12-09T19:14:22.751Z,110.30
2022-12-09T19:16:49.838Z,103.25
2022-12-09T19:19:19.103Z,99.30
2022-12-09T19:21:46.038Z,108.35
2022-12-09T19:24:21.500Z,116.68
2022-12-09T19:26:48.044Z,118.23
2022-12-09T19:29:15.214Z,127.40
2022-12-09T19:31:44.662Z,124.93
2022-12-09T19:34:14.133Z,108.72
2022-12-09T19:36:40.849Z,119.65
2022-12-09T19:39:08.604Z,128.47
2022-12-09T19:41:36.389Z,105.28
2022-12-09T19:44:03.652Z,115.95
2022-12-09T19:46:30.885Z,136.25
2022-12-09T19:48:58.544Z,139.55
2022-12-09T19:51:26.911Z,125.60
2022-12-09T19:53:55.134Z,143.02
2022-12-09T19:56:22.118Z,153.45
2022-12-09T19:58:49.291Z,155.73
2022-12-09T20:01:18.670Z,164.05
2022-12-09T20:03:48.048Z,141.67
2022-12-09T20:06:16.764Z,141.48
2022-12-09T20:08:44.423Z,151.82
2022-12-09T20:11:13.831Z,146.02
2022-12-09T20:13:40.866Z,151.50
2022-12-09T20:16:10.150Z,145.87
2022-12-09T20:18:37.337Z,161.68
2022-12-09T20:21:06.441Z,178.00
2022-12-09T20:23:35.112Z,165.07
2022-12-09T20:26:11.050Z,158.98
2022-12-09T20:28:39.585Z,157.73
2022-12-09T20:31:09.475Z,173.45
2022-12-09T20:33:36.906Z,160.73
2022-12-09T20:36:11.963Z,169.77
2022-12-09T20:38:38.939Z,152.27
2022-12-09T20:41:07.619Z,159.63
2022-12-09T20:43:34.125Z,185.23
2022-12-09T20:46:04.830Z,136.95
2022-12-09T20:48:31.383Z,167.07
2022-12-09T20:50:57.848Z,185.93
2022-12-09T20:53:24.299Z,155.83
2022-12-09T20:55:57.877Z,176.25
2022-12-09T20:58:24.676Z,278.55
2022-12-09T21:00:51.226Z,300.67
2022-12-09T21:03:17.997Z,361.80
2022-12-09T21:05:44.699Z,312.43
2022-12-09T21:08:11.317Z,376.13
2022-12-09T21:10:37.858Z,333.92
2022-12-09T21:13:04.458Z,363.92
2022-12-09T21:15:31.045Z,399.05
2022-12-09T21:17:57.488Z,399.73
2022-12-09T21:20:24.122Z,597.45
2022-12-09T21:23:10.577Z,422.38
2022-12-09T21:25:37.154Z,561.58
2022-12-09T21:28:03.837Z,471.05
2022-12-09T21:30:30.336Z,421.97
2022-12-09T21:32:56.976Z,516.90
2022-12-09T21:35:23.447Z,470.92
2022-12-09T21:37:55.857Z,420.98
2022-12-09T21:40:22.631Z,496.48
2022-12-09T21:42:49.089Z,437.50
2022-12-09T21:45:16.028Z,457.90
2022-12-09T21:47:42.520Z,438.23
2022-12-09T21:50:09.456Z,391.20
2022-12-09T21:52:36.525Z,328.70
2022-12-09T21:55:03.302Z,362.47
2022-12-09T21:57:29.726Z,317.83
2022-12-09T21:59:56.201Z,266.58
2022-12-09T22:02:22.692Z,193.00
2022-12-09T22:04:49.238Z,194.48
2022-12-09T22:07:15.794Z,334.27
2022-12-09T22:09:42.511Z,314.48
2022-12-09T22:12:09.180Z,262.35
2022-12-09T22:14:36.244Z,254.25
2022-12-09T22:17:03.088Z,203.00
2022-12-09T22:19:29.639Z,268.13
2022-12-09T22:21:56.204Z,197.32
2022-12-09T22:24:22.703Z,221.35
2022-12-09T22:26:49.273Z,218.32
2022-12-09T22:29:17.343Z,200.02
2022-12-09T22:31:44.770Z,179.73
2022-12-09T22:34:17.373Z,186.07
2022-12-09T22:36:44.164Z,170.93
2022-12-09T22:39:14.017Z,136.25
2022-12-09T22:41:40.699Z,124.00
2022-12-09T22:44:07.285Z,134.47
2022-12-09T22:46:34.262Z,140.18
2022-12-09T22:49:04.092Z,165.70
2022-12-09T22:51:33.604Z,136.95
2022-12-09T22:54:01.828Z,134.00
2022-12-09T22:56:28.427Z,190.33
2022-12-09T22:58:55.097Z,208.02
2022-12-09T23:01:27.243Z,247.55
2022-12-09T23:03:55.433Z,250.00
2022-12-09T23:06:22.282Z,263.65
2022-12-09T23:08:48.805Z,400.03
2022-12-09T23:11:18.019Z,478.67
2022-12-09T23:13:44.852Z,387.60
2022-12-09T23:16:14.543Z,382.95
2022-12-09T23:18:41.802Z,356.92
2022-12-09T23:21:14.755Z,461.47
2022-12-09T23:23:42.046Z,274.88
2022-12-09T23:26:15.614Z,275.25
2022-12-09T23:28:45.399Z,225.77
2022-12-09T23:31:14.308Z,185.15
2022-12-09T23:33:42.755Z,161.10
2022-12-09T23:36:12.551Z,162.63
2022-12-09T23:38:39.583Z,163.55
2022-12-09T23:41:06.456Z,152.10
2022-12-09T23:43:37.320Z,139.27
2022-12-09T23:46:09.998Z,138.10
2022-12-09T23:48:41.323Z,127.05
2022-12-09T23:51:16.630Z,124.68
2022-12-09T23:53:45.408Z,125.50
2022-12-09T23:56:14.114Z,120.72
2022-12-09T23:58:41.929Z,139.80
